Time;durP1;ratioP1;P1;durP2;ratioP2;P2;SDS_P1;SDS_P2;PMS_P1;PMS_P2;Temp;Humidity;BMP_temperature;BMP_pressure;BME280_temperature;BME280_humidity;BME280_pressure;Samples;Min_cycle;Max_cycle;Signal;HPM_P1;HPM_P2
2022/08/04 00:01:43;;;;;;;5.27;3.53;;;20.70;99.90;;;;;;5055150;28;20179;-76
2022/08/04 00:04:19;;;;;;;4.50;3.40;;;20.60;99.90;;;;;;5054916;28;20397;-75
2022/08/04 00:06:58;;;;;;;4.13;3.70;;;20.60;99.90;;;;;;5054919;28;20397;-75
2022/08/04 00:09:59;;;;;;;6.93;3.63;;;20.60;99.90;;;;;;5055028;28;20769;-70
2022/08/04 00:12:29;;;;;;;4.23;3.73;;;20.50;99.90;;;;;;5053547;28;20413;-69
2022/08/04 00:14:58;;;;;;;7.40;3.67;;;20.40;99.90;;;;;;5054900;28;20418;-69
2022/08/04 00:17:30;;;;;;;4.97;4.10;;;20.40;99.90;;;;;;5055506;28;20452;-69
2022/08/04 00:20:00;;;;;;;4.10;3.60;;;20.40;99.90;;;;;;5054791;28;20456;-69
2022/08/04 00:22:29;;;;;;;8.20;4.23;;;20.40;99.90;;;;;;5056105;28;20401;-69
2022/08/04 00:24:56;;;;;;;4.30;3.63;;;20.40;99.90;;;;;;5055545;28;20475;-70
2022/08/04 00:27:22;;;;;;;4.80;3.83;;;20.30;99.90;;;;;;5053883;28;20421;-68
2022/08/04 00:29:48;;;;;;;8.47;4.80;;;20.30;99.90;;;;;;5054653;28;20410;-70
2022/08/04 00:32:17;;;;;;;6.10;4.60;;;20.30;99.90;;;;;;5054797;28;20413;-73
2022/08/04 00:34:43;;;;;;;6.00;4.83;;;20.30;99.90;;;;;;5054924;28;20183;-76
2022/08/04 00:37:09;;;;;;;6.93;5.90;;;20.40;99.90;;;;;;5054902;28;20508;-75
2022/08/04 00:39:35;;;;;;;10.77;6.20;;;20.40;99.90;;;;;;5054660;28;20554;-69
2022/08/04 00:42:16;;;;;;;11.83;7.80;;;20.50;99.90;;;;;;5053644;28;20929;-70
2022/08/04 00:45:00;;;;;;;7.20;6.30;;;20.50;99.90;;;;;;5054685;28;20258;-69
2022/08/04 00:48:03;;;;;;;8.43;6.20;;;20.50;99.90;;;;;;5054941;28;21001;-75
2022/08/04 00:50:50;;;;;;;7.33;6.57;;;20.50;99.90;;;;;;5054371;28;20425;-75
2022/08/04 00:53:35;;;;;;;7.80;5.67;;;20.60;99.90;;;;;;5054193;28;20408;-69
2022/08/04 00:56:09;;;;;;;8.90;6.37;;;20.60;99.90;;;;;;5053368;28;20504;-73
2022/08/04 00:58:55;;;;;;;8.93;6.77;;;20.60;99.90;;;;;;5054116;28;20444;-72
2022/08/04 01:01:35;;;;;;;10.50;5.80;;;20.60;99.90;;;;;;5054837;28;20417;-71
2022/08/04 01:04:02;;;;;;;11.90;7.13;;;20.60;99.90;;;;;;5054251;28;20524;-74
2022/08/04 01:06:35;;;;;;;9.60;6.30;;;20.60;99.90;;;;;;5052447;28;20894;-68
2022/08/04 01:09:30;;;;;;;12.13;6.00;;;20.60;99.90;;;;;;5053795;28;20476;-75
2022/08/04 01:12:14;;;;;;;10.73;7.33;;;20.60;99.90;;;;;;5055147;28;20397;-75
2022/08/04 01:15:01;;;;;;;10.47;6.13;;;20.60;99.90;;;;;;5054819;28;20954;-72
2022/08/04 01:17:40;;;;;;;14.43;5.87;;;20.60;99.90;;;;;;5054197;28;20444;-69
2022/08/04 01:20:08;;;;;;;10.40;7.80;;;20.60;99.90;;;;;;5054480;28;20460;-75
2022/08/04 01:22:49;;;;;;;11.07;5.47;;;20.60;99.90;;;;;;5055073;28;20393;-70
2022/08/04 01:25:44;;;;;;;7.97;7.20;;;20.60;99.90;;;;;;5054982;28;20408;-75
2022/08/04 01:28:39;;;;;;;15.10;5.67;;;20.60;99.90;;;;;;5052257;28;20417;-75
2022/08/04 01:31:25;;;;;;;10.17;6.60;;;20.60;99.90;;;;;;5053502;28;20508;-75
2022/08/04 01:33:53;;;;;;;11.73;5.77;;;20.60;99.90;;;;;;5053688;28;20418;-70
2022/08/04 01:36:23;;;;;;;8.70;5.83;;;20.60;99.90;;;;;;5053322;28;20444;-70
2022/08/04 01:38:50;;;;;;;8.57;6.10;;;20.70;99.90;;;;;;5053427;28;20502;-75
2022/08/04 01:41:18;;;;;;;11.03;5.70;;;20.70;99.90;;;;;;5053371;28;20502;-74
2022/08/04 01:43:45;;;;;;;12.83;7.63;;;20.70;99.90;;;;;;5054629;28;20397;-72
2022/08/04 01:46:14;;;;;;;13.10;7.23;;;20.70;99.90;;;;;;5052823;28;20909;-73
2022/08/04 01:48:43;;;;;;;6.67;5.13;;;20.70;99.90;;;;;;5053075;28;20429;-74
2022/08/04 01:51:09;;;;;;;12.47;6.90;;;20.70;99.90;;;;;;5054310;28;20511;-69
2022/08/04 01:53:38;;;;;;;10.77;5.80;;;20.70;99.90;;;;;;5054143;28;20408;-75
2022/08/04 01:56:05;;;;;;;15.53;5.57;;;20.70;99.90;;;;;;5053146;28;20467;-73
2022/08/04 01:58:33;;;;;;;7.47;5.80;;;20.70;99.90;;;;;;5052854;28;20435;-75
2022/08/04 02:01:11;;;;;;;6.93;5.07;;;20.70;99.90;;;;;;5052979;28;20484;-73
2022/08/04 02:03:40;;;;;;;8.10;4.50;;;20.70;99.90;;;;;;5054243;28;20746;-73
2022/08/04 02:06:25;;;;;;;8.10;4.90;;;20.60;99.90;;;;;;5052145;28;20416;-68
2022/08/04 02:09:25;;;;;;;7.80;5.03;;;20.60;99.90;;;;;;5053848;28;20797;-71
2022/08/04 02:12:33;;;;;;;8.70;5.10;;;20.50;99.90;;;;;;5040574;28;20413;-69
2022/08/04 02:15:12;;;;;;;8.57;7.67;;;20.50;99.90;;;;;;5053519;28;20421;-68
2022/08/04 02:18:01;;;;;;;10.63;5.33;;;20.40;99.90;;;;;;5051045;28;20833;-70
2022/08/04 02:20:44;;;;;;;8.00;5.27;;;20.30;99.90;;;;;;5052722;28;20450;-76
2022/08/04 02:23:14;;;;;;;10.10;5.63;;;20.30;99.90;;;;;;5052575;28;20416;-73
2022/08/04 02:26:00;;;;;;;7.30;4.90;;;20.20;99.90;;;;;;5052860;28;20405;-70
2022/08/04 02:28:44;;;;;;;5.03;4.57;;;20.10;99.90;;;;;;5053766;28;20424;-69
2022/08/04 02:31:13;;;;;;;5.50;4.63;;;20.10;99.90;;;;;;5051562;28;20782;-69
2022/08/04 02:33:45;;;;;;;12.27;6.60;;;20.00;99.90;;;;;;5052306;28;20406;-73
2022/08/04 02:36:22;;;;;;;8.17;5.13;;;20.00;99.90;;;;;;5053166;28;20455;-73
2022/08/04 02:38:58;;;;;;;11.13;4.43;;;19.90;99.90;;;;;;5053463;28;20839;-74
2022/08/04 02:41:26;;;;;;;9.73;4.23;;;19.90;99.90;;;;;;5053519;28;20454;-73
2022/08/04 02:43:56;;;;;;;9.70;5.30;;;19.80;99.90;;;;;;5053611;28;20398;-73
2022/08/04 02:46:23;;;;;;;4.70;4.30;;;19.80;99.90;;;;;;5052455;28;20390;-74
2022/08/04 02:48:51;;;;;;;8.50;4.37;;;19.70;99.90;;;;;;5052886;28;20418;-68
2022/08/04 02:51:22;;;;;;;5.53;5.03;;;19.70;99.90;;;;;;5052161;28;20488;-68
2022/08/04 02:53:52;;;;;;;5.97;5.00;;;19.70;99.90;;;;;;5052158;28;20808;-68
2022/08/04 02:56:20;;;;;;;4.70;4.20;;;19.60;99.90;;;;;;5051441;28;20402;-74
2022/08/04 02:58:51;;;;;;;11.73;5.00;;;19.60;99.90;;;;;;5052070;28;20960;-73
2022/08/04 03:01:17;;;;;;;7.97;4.80;;;19.50;99.90;;;;;;5053251;28;20468;-67
2022/08/04 03:04:12;;;;;;;9.30;4.50;;;19.50;99.90;;;;;;5052163;28;20401;-67
2022/08/04 03:06:38;;;;;;;9.23;4.03;;;19.50;99.90;;;;;;5051440;28;20835;-73
2022/08/04 03:09:09;;;;;;;7.30;3.97;;;19.50;99.90;;;;;;5051839;28;20520;-73
2022/08/04 03:12:08;;;;;;;9.90;5.80;;;19.50;99.90;;;;;;5053047;28;20250;-73
2022/08/04 03:14:36;;;;;;;8.30;5.10;;;19.50;99.90;;;;;;5040618;28;20482;-73
2022/08/04 03:17:20;;;;;;;6.23;4.90;;;19.50;99.90;;;;;;5051407;28;20412;-67
2022/08/04 03:20:12;;;;;;;5.40;3.80;;;19.50;99.90;;;;;;5052883;28;20484;-73
2022/08/04 03:23:02;;;;;;;6.67;4.30;;;19.50;99.90;;;;;;5053142;28;20736;-68
2022/08/04 03:25:57;;;;;;;10.53;4.83;;;19.50;99.90;;;;;;5051610;28;20421;-73
2022/08/04 03:28:53;;;;;;;8.97;4.40;;;19.50;99.90;;;;;;5053893;28;20430;-75
2022/08/04 03:31:34;;;;;;;6.13;4.37;;;19.50;99.90;;;;;;5057125;28;20967;-75
2022/08/04 03:34:27;;;;;;;4.90;4.30;;;19.50;99.90;;;;;;5057015;28;20438;-73
2022/08/04 03:37:01;;;;;;;4.10;3.70;;;19.50;99.90;;;;;;5056282;28;20409;-67
2022/08/04 03:39:59;;;;;;;5.57;4.30;;;19.50;99.90;;;;;;5055609;28;20444;-67
2022/08/04 03:42:33;;;;;;;5.80;4.00;;;19.50;99.90;;;;;;5056968;28;20409;-73
2022/08/04 03:45:17;;;;;;;7.43;4.13;;;19.50;99.90;;;;;;5055292;28;20409;-68
2022/08/04 03:48:06;;;;;;;6.10;5.50;;;19.50;99.90;;;;;;5054590;28;20425;-72
2022/08/04 03:50:41;;;;;;;4.97;4.57;;;19.50;99.90;;;;;;5056788;28;20397;-68
2022/08/04 03:53:45;;;;;;;5.30;4.37;;;19.60;99.90;;;;;;5055375;28;20417;-73
2022/08/04 03:56:51;;;;;;;8.40;4.60;;;19.60;99.90;;;;;;5055864;28;20923;-75
2022/08/04 03:59:30;;;;;;;4.30;3.70;;;19.60;99.90;;;;;;5054539;28;20465;-75
2022/08/04 04:02:34;;;;;;;8.87;4.57;;;19.70;99.90;;;;;;5056030;28;20401;-70
2022/08/04 04:05:35;;;;;;;4.00;3.60;;;19.70;99.90;;;;;;5052280;28;20409;-70
2022/08/04 04:08:22;;;;;;;5.67;4.90;;;19.70;99.90;;;;;;5055124;28;21059;-69
2022/08/04 04:11:05;;;;;;;10.17;4.67;;;19.70;99.90;;;;;;5055442;28;20421;-76
2022/08/04 04:13:42;;;;;;;6.23;3.80;;;19.70;99.90;;;;;;5056245;28;20770;-75
2022/08/04 04:16:20;;;;;;;7.97;3.90;;;19.60;99.90;;;;;;5055318;28;20830;-72
2022/08/04 04:19:38;;;;;;;6.00;4.23;;;19.70;99.90;;;;;;5056217;28;20850;-68
2022/08/04 04:22:25;;;;;;;8.03;4.20;;;19.70;99.90;;;;;;5052911;28;20421;-70
2022/08/04 04:25:11;;;;;;;4.23;3.83;;;19.70;99.90;;;;;;5055089;28;20405;-74
2022/08/04 04:27:39;;;;;;;4.13;3.77;;;19.70;99.90;;;;;;5055295;28;20902;-69
2022/08/04 04:30:42;;;;;;;5.97;4.10;;;19.80;99.90;;;;;;5056074;28;20882;-73
2022/08/04 04:33:36;;;;;;;4.63;3.80;;;19.90;99.90;;;;;;5051254;28;20920;-67
2022/08/04 04:36:30;;;;;;;10.83;4.47;;;19.90;99.90;;;;;;5055262;28;20390;-72
2022/08/04 04:39:16;;;;;;;5.43;3.60;;;19.90;99.90;;;;;;5043581;28;20504;-68
2022/08/04 04:42:09;;;;;;;4.33;3.43;;;19.90;99.90;;;;;;5055556;28;20459;-67
2022/08/04 04:44:40;;;;;;;6.13;4.50;;;20.00;99.90;;;;;;5055695;28;20420;-67
2022/08/04 04:47:08;;;;;;;5.07;3.70;;;20.00;99.90;;;;;;5053874;28;20412;-73
2022/08/04 04:49:45;;;;;;;6.37;4.77;;;20.00;99.90;;;;;;5055658;28;20405;-73
2022/08/04 04:52:35;;;;;;;7.60;3.93;;;20.10;99.90;;;;;;5055536;28;20455;-74
2022/08/04 04:55:04;;;;;;;4.47;3.53;;;20.10;99.90;;;;;;5054578;28;20401;-73
2022/08/04 04:57:34;;;;;;;6.80;4.07;;;20.20;99.90;;;;;;5054141;28;20435;-72
2022/08/04 05:00:12;;;;;;;4.73;3.97;;;20.30;99.90;;;;;;5053683;28;20445;-70
2022/08/04 05:03:15;;;;;;;9.33;4.30;;;20.30;99.90;;;;;;5055266;28;20976;-72
2022/08/04 05:06:13;;;;;;;4.67;4.23;;;20.50;99.90;;;;;;5055417;28;20425;-75
2022/08/04 05:09:00;;;;;;;5.40;4.00;;;20.50;99.90;;;;;;5053507;28;20437;-74
2022/08/04 05:11:52;;;;;;;7.70;4.40;;;20.60;99.90;;;;;;5055328;28;20761;-72
2022/08/04 05:14:32;;;;;;;11.20;4.17;;;20.70;99.90;;;;;;5053842;28;20421;-72
2022/08/04 05:17:21;;;;;;;7.13;3.80;;;20.80;99.90;;;;;;5053459;28;20401;-71
2022/08/04 05:19:53;;;;;;;3.50;3.20;;;20.90;99.90;;;;;;5054903;28;20429;-72
2022/08/04 05:22:44;;;;;;;6.87;3.90;;;21.00;99.90;;;;;;5054989;28;20770;-74
2022/08/04 05:25:20;;;;;;;5.13;3.67;;;21.20;99.90;;;;;;5054274;28;20825;-73
2022/08/04 15:47:24;;;;;;;9.07;2.97;;;29.80;99.90;;;;;;5068462;28;20613;-74
2022/08/04 15:50:08;;;;;;;11.50;3.10;;;29.50;99.90;;;;;;5068937;28;20400;-77
2022/08/04 15:52:55;;;;;;;7.33;3.43;;;29.30;99.90;;;;;;5069466;28;20425;-77
2022/08/04 15:55:34;;;;;;;6.30;3.00;;;29.30;99.90;;;;;;5070689;28;20408;-79
2022/08/04 15:58:08;;;;;;;2.67;2.20;;;29.30;99.90;;;;;;5029713;28;20421;-78
2022/08/04 16:00:49;;;;;;;6.30;5.20;;;29.10;99.90;;;;;;5032968;28;21714;-78
2022/08/04 16:03:33;;;;;;;8.10;4.57;;;29.10;99.90;;;;;;5070556;28;20393;-79
2022/08/04 16:06:16;;;;;;;4.87;2.50;;;29.10;99.90;;;;;;5070074;28;20471;-78
2022/08/04 16:08:51;;;;;;;4.77;2.70;;;29.10;99.90;;;;;;5069988;28;20417;-77
2022/08/04 16:11:22;;;;;;;7.73;2.63;;;29.00;99.90;;;;;;5066803;28;20957;-76
2022/08/04 16:13:57;;;;;;;6.50;3.13;;;28.80;99.90;;;;;;5067736;28;20944;-78
2022/08/04 16:16:37;;;;;;;3.93;3.07;;;28.70;99.90;;;;;;5068130;28;20922;-75
2022/08/04 16:19:16;;;;;;;6.87;2.83;;;28.70;99.90;;;;;;5068843;28;20520;-77
2022/08/04 16:21:53;;;;;;;8.70;2.80;;;28.50;99.90;;;;;;5067338;28;20610;-77
2022/08/04 16:24:20;;;;;;;7.30;4.30;;;28.20;99.90;;;;;;5069126;28;20408;-80
2022/08/04 16:26:59;;;;;;;4.67;2.97;;;28.10;99.90;;;;;;5064793;28;20474;-78
2022/08/04 16:29:26;;;;;;;6.17;2.90;;;28.00;99.90;;;;;;5068193;28;20788;-74
2022/08/04 16:32:04;;;;;;;9.57;3.97;;;27.90;99.90;;;;;;5068076;28;20443;-79
2022/08/04 16:34:30;;;;;;;5.90;3.27;;;27.80;99.90;;;;;;5069727;28;20758;-74
2022/08/04 16:36:59;;;;;;;3.50;3.17;;;27.60;99.90;;;;;;5066677;28;20996;-74
2022/08/04 16:39:25;;;;;;;3.60;3.10;;;27.50;99.90;;;;;;5069847;28;20408;-73
2022/08/04 16:41:50;;;;;;;4.27;2.20;;;27.30;99.90;;;;;;5068333;28;20550;-75
2022/08/04 16:44:40;;;;;;;8.60;3.43;;;27.30;99.90;;;;;;5068467;28;20248;-76
2022/08/04 16:47:08;;;;;;;3.50;2.87;;;27.10;99.90;;;;;;5066051;28;20754;-73
2022/08/04 16:49:34;;;;;;;5.10;3.40;;;27.00;99.90;;;;;;5069521;28;20530;-78
2022/08/04 16:52:05;;;;;;;6.03;2.60;;;26.90;99.90;;;;;;5068288;28;20415;-71
2022/08/04 16:54:31;;;;;;;7.03;5.00;;;26.70;99.90;;;;;;5068103;28;20201;-71
2022/08/04 16:56:58;;;;;;;3.53;3.03;;;26.70;99.90;;;;;;5061905;28;20461;-71
2022/08/04 16:59:25;;;;;;;2.67;2.10;;;26.60;99.90;;;;;;5056247;28;20400;-68
2022/08/04 17:01:52;;;;;;;5.93;2.70;;;26.50;99.90;;;;;;5054739;28;20412;-77
2022/08/04 17:04:32;;;;;;;9.63;3.40;;;26.50;99.90;;;;;;5055654;28;20416;-76
2022/08/04 17:07:00;;;;;;;7.83;2.37;;;26.40;99.90;;;;;;5050551;28;20440;-77
2022/08/04 17:09:27;;;;;;;4.20;1.83;;;26.40;99.90;;;;;;5056058;28;20485;-78
2022/08/04 17:11:53;;;;;;;6.50;2.60;;;26.30;99.90;;;;;;5055918;28;20398;-73
2022/08/04 17:14:27;;;;;;;2.80;2.00;;;26.30;99.90;;;;;;5054567;28;20455;-70
2022/08/04 17:16:59;;;;;;;6.20;2.30;;;26.30;99.90;;;;;;5052201;28;20437;-78
2022/08/04 17:19:25;;;;;;;2.57;2.00;;;26.30;99.90;;;;;;5055798;28;20405;-77
2022/08/04 17:21:56;;;;;;;2.30;2.10;;;26.30;99.90;;;;;;5055132;28;20750;-77
2022/08/04 17:24:22;;;;;;;3.30;2.20;;;26.20;99.90;;;;;;5055603;28;20182;-72
2022/08/04 17:26:47;;;;;;;3.57;2.20;;;26.00;99.90;;;;;;5050596;28;20461;-72
2022/08/04 17:29:13;;;;;;;5.30;2.30;;;25.80;99.90;;;;;;5055570;28;20670;-77
2022/08/04 17:31:39;;;;;;;7.00;2.70;;;25.80;99.90;;;;;;5055627;28;20527;-78
2022/08/04 17:34:13;;;;;;;4.73;2.80;;;25.80;99.90;;;;;;5054161;28;20320;-73
2022/08/04 17:36:39;;;;;;;9.40;2.50;;;25.80;99.90;;;;;;5051430;28;20189;-78
2022/08/04 17:39:33;;;;;;;6.73;3.40;;;25.80;99.90;;;;;;5054888;28;20417;-75
2022/08/04 17:41:59;;;;;;;5.57;3.43;;;25.70;99.90;;;;;;5053269;28;20778;-78
2022/08/04 17:44:37;;;;;;;5.67;2.67;;;25.60;99.90;;;;;;5053806;28;20406;-77
2022/08/04 17:47:15;;;;;;;3.80;2.90;;;25.60;99.90;;;;;;5052236;28;20210;-77
2022/08/04 17:49:40;;;;;;;5.67;2.60;;;25.60;99.90;;;;;;5054043;28;20858;-74
2022/08/04 17:52:08;;;;;;;6.33;2.90;;;25.60;99.90;;;;;;5055238;28;20431;-77
2022/08/04 17:54:38;;;;;;;2.60;2.40;;;25.50;99.90;;;;;;5054653;28;20178;-73
2022/08/04 17:57:18;;;;;;;5.20;2.70;;;25.40;99.90;;;;;;5046161;28;20433;-77
2022/08/04 17:59:47;;;;;;;4.07;2.03;;;25.50;99.90;;;;;;5055082;28;20408;-77
2022/08/04 18:02:20;;;;;;;8.93;2.67;;;25.40;99.90;;;;;;5055109;28;20409;-78
2022/08/04 18:04:46;;;;;;;5.20;3.33;;;25.40;99.90;;;;;;5049941;28;20437;-74
2022/08/04 18:07:32;;;;;;;8.20;2.53;;;25.30;99.90;;;;;;5053818;28;20578;-77
2022/08/04 18:10:00;;;;;;;2.83;2.20;;;25.20;99.90;;;;;;5052554;28;20171;-78
2022/08/04 18:12:37;;;;;;;9.27;2.97;;;25.10;99.90;;;;;;5049596;28;20475;-74
2022/08/04 18:15:07;;;;;;;4.60;2.47;;;25.10;99.90;;;;;;5052082;28;20433;-76
2022/08/04 18:17:37;;;;;;;4.40;2.73;;;25.00;1.00;;;;;;5052289;28;20976;-77
2022/08/04 18:20:09;;;;;;;6.30;2.83;;;24.90;99.90;;;;;;5053363;28;20751;-78
2022/08/04 18:22:35;;;;;;;7.43;2.47;;;24.80;99.90;;;;;;5051763;28;20429;-77
2022/08/04 18:25:02;;;;;;;8.10;3.23;;;24.70;1.00;;;;;;5047951;28;20778;-78
2022/08/04 18:27:29;;;;;;;9.77;2.37;;;24.60;1.00;;;;;;5051877;28;20428;-78
2022/08/04 18:29:57;;;;;;;4.60;2.10;;;24.60;1.00;;;;;;5053241;28;20761;-77
2022/08/04 18:32:24;;;;;;;2.13;2.03;;;24.60;99.90;;;;;;5048055;28;20449;-78
2022/08/04 18:34:51;;;;;;;2.20;2.00;;;24.50;1.00;;;;;;5052980;28;20433;-76
2022/08/04 18:37:17;;;;;;;5.20;2.70;;;24.40;99.90;;;;;;5054367;28;20971;-74
2022/08/04 18:39:43;;;;;;;2.63;2.33;;;24.30;99.90;;;;;;5053048;28;20432;-73
2022/08/04 18:42:10;;;;;;;2.20;2.00;;;24.30;99.90;;;;;;5052408;28;20432;-74
2022/08/04 18:44:36;;;;;;;6.00;3.20;;;24.30;99.90;;;;;;5052673;28;20404;-74
2022/08/04 18:47:02;;;;;;;2.57;2.03;;;24.20;1.00;;;;;;5051584;28;20465;-75
2022/08/04 18:49:27;;;;;;;5.17;1.83;;;24.20;99.90;;;;;;5053076;28;20584;-72
2022/08/04 18:51:55;;;;;;;3.23;2.33;;;24.10;99.90;;;;;;5052334;28;20456;-76
2022/08/04 18:54:23;;;;;;;4.00;2.30;;;24.10;99.90;;;;;;5052847;28;20167;-71
2022/08/04 18:56:51;;;;;;;5.80;2.00;;;24.20;99.90;;;;;;5051775;28;20449;-72
2022/08/04 18:59:17;;;;;;;3.53;2.20;;;24.20;99.90;;;;;;5053751;28;20421;-71
2022/08/04 19:01:43;;;;;;;3.60;2.13;;;24.20;99.90;;;;;;5047150;28;20451;-75
2022/08/04 19:04:09;;;;;;;3.93;2.10;;;24.10;99.90;;;;;;5052018;28;20468;-76
2022/08/04 19:06:36;;;;;;;4.30;2.80;;;24.10;99.90;;;;;;5051562;28;20255;-75
2022/08/04 19:09:04;;;;;;;2.93;2.00;;;24.10;99.90;;;;;;5053548;28;20417;-69
2022/08/04 19:11:34;;;;;;;23.20;16.63;;;24.00;99.90;;;;;;5052654;28;20921;-70
2022/08/04 19:14:02;;;;;;;3.10;2.80;;;24.00;99.90;;;;;;5052041;28;20482;-70
2022/08/04 19:16:29;;;;;;;8.20;6.10;;;23.90;1.00;;;;;;5051453;28;20406;-70
2022/08/04 19:18:56;;;;;;;5.70;5.00;;;23.90;99.90;;;;;;5053620;28;20417;-75
2022/08/04 19:21:22;;;;;;;3.00;2.40;;;23.90;99.90;;;;;;5053106;28;20574;-71
2022/08/04 19:23:47;;;;;;;6.60;2.80;;;23.80;99.90;;;;;;5049282;28;20532;-75
2022/08/04 19:26:13;;;;;;;3.70;1.87;;;23.80;99.90;;;;;;5052606;28;20801;-76
2022/08/04 19:28:39;;;;;;;2.60;2.40;;;23.70;99.90;;;;;;5052145;28;20677;-76
2022/08/04 19:31:06;;;;;;;2.57;2.37;;;23.70;99.90;;;;;;5050428;28;20664;-75
2022/08/04 19:33:32;;;;;;;3.30;2.13;;;23.60;99.90;;;;;;5053225;28;20175;-76
2022/08/04 19:35:58;;;;;;;3.00;1.90;;;23.60;99.90;;;;;;5051689;28;20463;-70
2022/08/04 19:38:24;;;;;;;4.53;2.30;;;23.50;99.90;;;;;;5051667;28;20933;-70
2022/08/04 19:40:50;;;;;;;3.20;2.27;;;23.50;1.00;;;;;;5051638;28;20540;-75
2022/08/04 19:43:16;;;;;;;8.13;2.50;;;23.40;1.00;;;;;;5051085;28;20433;-75
2022/08/04 19:45:42;;;;;;;5.33;2.00;;;23.40;1.00;;;;;;5046504;28;20300;-71
2022/08/04 19:48:08;;;;;;;3.10;2.20;;;23.30;99.90;;;;;;5029410;28;20269;-76
2022/08/04 19:50:34;;;;;;;2.53;2.10;;;23.20;1.00;;;;;;5051922;28;20506;-76
2022/08/04 19:53:00;;;;;;;4.90;1.93;;;23.20;1.00;;;;;;5051873;28;20174;-75
2022/08/04 19:55:26;;;;;;;6.33;2.20;;;23.10;1.00;;;;;;5053020;28;20405;-71
2022/08/04 19:57:52;;;;;;;5.20;2.30;;;23.00;99.90;;;;;;5048764;28;20281;-76
2022/08/04 20:00:19;;;;;;;3.70;2.50;;;23.00;1.00;;;;;;5053226;28;20182;-70
2022/08/04 20:02:45;;;;;;;4.93;2.40;;;22.90;1.00;;;;;;5052318;28;20192;-75
2022/08/04 20:05:12;;;;;;;2.90;2.40;;;22.90;1.00;;;;;;5053192;28;20800;-73
2022/08/04 20:07:38;;;;;;;5.00;2.63;;;22.80;1.00;;;;;;5048950;28;20451;-70
2022/08/04 20:10:05;;;;;;;7.23;3.03;;;22.90;1.00;;;;;;5053145;28;20398;-69
2022/08/04 20:12:31;;;;;;;4.70;2.67;;;22.90;1.00;;;;;;5053056;28;20410;-76
2022/08/04 20:14:56;;;;;;;3.70;2.23;;;22.80;1.00;;;;;;5051553;28;20413;-76
2022/08/04 20:17:23;;;;;;;7.93;2.97;;;22.80;1.00;;;;;;5048243;28;20445;-70
2022/08/04 20:19:49;;;;;;;4.30;2.33;;;22.80;1.00;;;;;;5052873;28;20171;-76
2022/08/04 20:22:17;;;;;;;5.10;2.87;;;22.70;1.00;;;;;;5053163;28;20419;-68
2022/08/04 20:24:43;;;;;;;10.73;6.23;;;22.70;1.00;;;;;;5052980;28;20398;-76
2022/08/04 20:27:13;;;;;;;3.83;3.10;;;22.70;1.00;;;;;;5048988;28;20856;-69
2022/08/04 20:29:39;;;;;;;6.47;2.97;;;22.60;1.00;;;;;;5051453;28;20179;-70
2022/08/04 20:32:05;;;;;;;3.57;3.10;;;22.60;1.00;;;;;;5052776;28;20401;-70
2022/08/04 20:34:31;;;;;;;6.23;3.70;;;22.50;1.00;;;;;;5056289;28;20417;-75
2022/08/04 20:36:56;;;;;;;3.63;2.43;;;22.50;1.00;;;;;;5052734;28;20531;-69
2022/08/04 20:39:22;;;;;;;5.17;2.83;;;22.40;1.00;;;;;;5056585;28;20645;-68
2022/08/04 20:41:48;;;;;;;4.97;3.00;;;22.40;1.00;;;;;;5056401;28;20201;-70
2022/08/04 20:44:14;;;;;;;10.20;2.60;;;22.30;1.00;;;;;;5056416;28;20190;-67
2022/08/04 20:46:40;;;;;;;10.10;3.50;;;22.20;1.00;;;;;;5053492;28;20457;-75
2022/08/04 20:49:06;;;;;;;7.67;3.33;;;22.20;1.00;;;;;;5054972;28;20233;-68
2022/08/04 20:51:31;;;;;;;8.50;3.40;;;22.20;1.00;;;;;;5054930;28;20167;-68
2022/08/04 20:53:57;;;;;;;8.33;3.03;;;22.10;1.00;;;;;;5054892;28;20186;-75
2022/08/04 20:56:23;;;;;;;7.30;4.03;;;22.10;1.00;;;;;;5054054;28;20216;-68
2022/08/04 20:58:48;;;;;;;11.03;4.47;;;22.10;1.00;;;;;;5053217;28;20198;-76
2022/08/04 21:01:14;;;;;;;7.90;3.33;;;22.00;1.00;;;;;;5056369;28;20171;-75
2022/08/04 21:06:24;;;;;;;6.07;3.80;;;21.90;1.00;;;;;;5055250;28;20193;-75
2022/08/04 21:08:55;;;;;;;12.10;5.30;;;21.90;1.00;;;;;;5052873;28;20536;-75
2022/08/04 21:11:20;;;;;;;5.00;4.17;;;21.80;1.00;;;;;;5054789;28;20170;-75
2022/08/04 21:13:46;;;;;;;6.03;3.70;;;21.70;1.00;;;;;;5054792;28;20417;-76
2022/08/04 21:16:12;;;;;;;10.87;3.80;;;21.70;1.00;;;;;;5055024;28;20178;-68
2022/08/04 21:18:37;;;;;;;6.07;4.63;;;21.70;1.00;;;;;;5053041;28;20653;-75
2022/08/04 21:21:03;;;;;;;7.30;4.80;;;21.60;1.00;;;;;;5055832;28;20624;-69
2022/08/04 21:23:29;;;;;;;11.10;5.07;;;21.60;1.00;;;;;;5055625;28;20177;-75
2022/08/04 21:26:02;;;;;;;9.93;5.30;;;21.60;1.00;;;;;;5055185;28;20205;-76
2022/08/04 21:28:28;;;;;;;15.10;6.03;;;21.50;1.00;;;;;;5051262;28;20191;-68
2022/08/04 21:30:54;;;;;;;15.50;8.60;;;21.50;1.00;;;;;;5054365;28;20445;-68
2022/08/04 21:33:20;;;;;;;16.13;6.33;;;21.40;1.00;;;;;;5054342;28;20433;-70
2022/08/04 21:35:46;;;;;;;12.30;6.10;;;21.30;1.00;;;;;;5055380;28;20410;-68
2022/08/04 21:38:13;;;;;;;12.67;7.37;;;21.30;1.00;;;;;;5052689;28;20453;-76
2022/08/04 21:40:38;;;;;;;11.17;5.37;;;21.30;1.00;;;;;;5055760;28;20178;-75
2022/08/04 21:43:04;;;;;;;10.40;5.73;;;21.30;1.00;;;;;;5054996;28;20412;-68
2022/08/04 21:45:30;;;;;;;12.17;5.83;;;21.30;1.00;;;;;;5054129;28;20302;-68
2022/08/04 21:47:55;;;;;;;10.03;6.13;;;21.20;1.00;;;;;;5052369;28;20230;-74
2022/08/04 21:50:21;;;;;;;9.83;5.63;;;21.20;1.00;;;;;;5055157;28;20181;-75
2022/08/04 21:52:48;;;;;;;11.77;6.30;;;21.10;1.00;;;;;;5055359;28;20174;-68
2022/08/04 21:55:14;;;;;;;15.77;5.80;;;21.10;1.00;;;;;;5055231;28;20163;-75
2022/08/04 21:57:39;;;;;;;10.27;6.03;;;21.00;1.00;;;;;;5048947;28;20459;-68
2022/08/04 22:00:07;;;;;;;13.67;6.13;;;21.00;1.00;;;;;;5054654;28;20497;-69
2022/08/04 22:02:33;;;;;;;10.10;5.53;;;20.90;1.00;;;;;;5054901;28;20174;-76
2022/08/04 22:04:58;;;;;;;12.30;6.77;;;20.90;1.00;;;;;;5053984;28;20489;-68
2022/08/04 22:07:24;;;;;;;13.23;5.57;;;20.90;1.00;;;;;;5050130;28;20256;-68
2022/08/04 22:09:49;;;;;;;12.53;6.17;;;20.90;1.00;;;;;;5053991;28;20178;-70
2022/08/04 22:12:15;;;;;;;15.67;8.10;;;20.80;1.00;;;;;;5052488;28;20543;-69
2022/08/04 22:14:41;;;;;;;13.20;6.83;;;20.80;1.00;;;;;;5054694;28;20163;-68
2022/08/04 22:17:07;;;;;;;10.47;7.17;;;20.70;1.00;;;;;;5051057;28;20167;-68
2022/08/04 22:19:33;;;;;;;13.43;5.80;;;20.70;1.00;;;;;;5054689;28;20233;-76
2022/08/04 22:21:58;;;;;;;15.10;5.80;;;20.70;1.00;;;;;;5054660;28;20398;-68
2022/08/04 22:24:24;;;;;;;8.67;6.30;;;20.70;1.00;;;;;;5053643;28;20178;-74
2022/08/04 22:26:49;;;;;;;10.93;6.03;;;20.60;1.00;;;;;;5053488;28;20199;-76
2022/08/04 22:29:15;;;;;;;10.37;5.60;;;20.50;1.00;;;;;;5049463;28;20196;-68
2022/08/04 22:31:42;;;;;;;12.60;6.50;;;20.40;9.80;;;;;;5054659;28;20167;-75
2022/08/04 22:34:08;;;;;;;14.83;7.20;;;20.40;1.00;;;;;;5054508;28;20747;-68
2022/08/04 22:36:34;;;;;;;11.87;6.50;;;20.50;27.20;;;;;;5051908;28;20409;-75
2022/08/04 22:39:00;;;;;;;8.40;5.67;;;20.50;36.40;;;;;;5051219;28;20463;-68
2022/08/04 22:41:25;;;;;;;12.27;5.50;;;20.50;39.50;;;;;;5053156;28;20171;-69
2022/08/04 22:43:51;;;;;;;8.83;5.27;;;20.50;9.10;;;;;;5054274;28;20175;-75
2022/08/04 22:46:23;;;;;;;13.47;6.63;;;20.40;1.00;;;;;;5051730;28;20260;-75
2022/08/04 22:48:49;;;;;;;7.03;5.10;;;20.40;1.00;;;;;;5052000;28;20202;-75
2022/08/04 22:51:15;;;;;;;6.03;5.10;;;20.30;8.20;;;;;;5054198;28;20439;-68
2022/08/04 22:53:41;;;;;;;8.13;5.40;;;20.30;11.90;;;;;;5053682;28;20405;-75
2022/08/04 22:56:07;;;;;;;13.50;5.80;;;20.40;27.00;;;;;;5052508;28;20655;-69
2022/08/04 22:58:33;;;;;;;9.60;5.43;;;20.30;46.00;;;;;;5051881;28;20536;-68
2022/08/04 23:00:59;;;;;;;13.70;6.17;;;20.20;56.50;;;;;;5052512;28;20989;-68
2022/08/04 23:03:25;;;;;;;12.27;4.90;;;20.20;51.50;;;;;;5053943;28;20186;-75
2022/08/04 23:05:51;;;;;;;5.57;5.03;;;20.20;31.90;;;;;;5052557;28;20973;-75
2022/08/04 23:08:16;;;;;;;6.33;4.70;;;20.10;43.80;;;;;;5050998;28;20792;-76
2022/08/04 23:10:43;;;;;;;8.40;4.63;;;20.00;34.50;;;;;;5053833;28;20186;-75
2022/08/04 23:13:11;;;;;;;9.37;5.83;;;20.00;44.30;;;;;;5052064;28;20252;-68
2022/08/04 23:15:37;;;;;;;8.17;5.33;;;19.90;78.00;;;;;;5053774;28;20484;-67
2022/08/04 23:18:02;;;;;;;10.17;5.87;;;19.90;93.00;;;;;;5049741;28;20580;-75
2022/08/04 23:20:28;;;;;;;7.93;5.47;;;19.90;74.60;;;;;;5052417;28;20560;-75
2022/08/04 23:22:55;;;;;;;7.33;4.43;;;19.90;83.50;;;;;;5052316;28;20170;-68
2022/08/04 23:25:20;;;;;;;6.67;4.50;;;19.80;81.50;;;;;;5052219;28;20619;-75
2022/08/04 23:27:47;;;;;;;4.67;3.70;;;19.80;75.90;;;;;;5048774;28;20484;-68
2022/08/04 23:30:14;;;;;;;6.77;3.93;;;19.70;58.40;;;;;;5051802;28;20750;-75
2022/08/04 23:32:39;;;;;;;4.23;3.60;;;19.70;60.40;;;;;;5052212;28;20428;-67
2022/08/04 23:35:08;;;;;;;9.07;4.13;;;19.60;68.00;;;;;;5053234;28;20402;-75
2022/08/04 23:37:34;;;;;;;6.07;4.70;;;19.50;65.90;;;;;;5050492;28;20237;-76
2022/08/04 23:40:00;;;;;;;7.00;4.47;;;19.50;56.40;;;;;;5053409;28;20397;-67